Time;durP1;ratioP1;P1;durP2;ratioP2;P2;SDS_P1;SDS_P2;PMS_P1;PMS_P2;Temp;Humidity;BMP_temperature;BMP_pressure;BME280_temperature;BME280_humidity;BME280_pressure;Samples;Min_cycle;Max_cycle;Signal;HPM_P1;HPM_P2
2024/04/08 00:00:24;;;;;;;5.30;2.50;;;19.00;29.60;;;;;;5019874;28;20670;-66
2024/04/08 00:02:50;;;;;;;6.50;2.80;;;18.80;29.70;;;;;;5020557;28;20610;-67
2024/04/08 00:05:16;;;;;;;5.10;3.17;;;18.80;29.90;;;;;;5020700;28;20213;-67
2024/04/08 00:07:42;;;;;;;4.67;2.20;;;18.90;29.90;;;;;;5025313;28;20213;-66
2024/04/08 00:10:08;;;;;;;9.80;2.90;;;18.90;29.60;;;;;;5025854;28;20211;-66
2024/04/08 00:12:34;;;;;;;6.13;2.83;;;18.80;29.90;;;;;;5024598;28;20239;-67
2024/04/08 00:15:00;;;;;;;7.63;2.63;;;18.80;30.00;;;;;;5023505;28;20645;-66
2024/04/08 00:17:43;;;;;;;5.77;2.33;;;18.70;29.90;;;;;;5343093;22;20218;-66
2024/04/08 00:20:09;;;;;;;8.57;2.60;;;18.70;30.00;;;;;;4998436;28;20226;-65
2024/04/08 00:22:35;;;;;;;3.93;2.30;;;18.60;30.10;;;;;;5000579;28;20273;-66
2024/04/08 00:25:01;;;;;;;5.43;2.50;;;18.60;30.10;;;;;;5007843;28;20673;-66
2024/04/08 00:27:28;;;;;;;5.00;2.60;;;18.50;30.30;;;;;;5011430;28;20205;-67
2024/04/08 00:29:54;;;;;;;5.13;1.97;;;18.50;30.90;;;;;;5004338;28;20622;-67
2024/04/08 00:32:20;;;;;;;5.63;2.37;;;18.50;30.30;;;;;;5008365;28;20218;-66
2024/04/08 00:34:46;;;;;;;8.80;2.53;;;18.50;30.30;;;;;;5008357;28;20206;-66
2024/04/08 00:37:12;;;;;;;7.23;2.87;;;18.50;30.30;;;;;;5011065;28;20233;-66
2024/04/08 00:39:39;;;;;;;8.13;2.93;;;18.50;30.30;;;;;;5001489;28;20195;-66
2024/04/08 00:42:04;;;;;;;6.67;3.10;;;18.40;30.10;;;;;;5010553;28;20237;-66
2024/04/08 00:44:31;;;;;;;5.13;2.67;;;18.40;30.00;;;;;;5003037;28;20200;-66
2024/04/08 00:46:56;;;;;;;6.63;2.20;;;18.40;30.10;;;;;;5001218;28;20291;-67
2024/04/08 00:49:23;;;;;;;5.70;2.70;;;18.30;30.30;;;;;;5001425;28;20307;-66
2024/04/08 00:51:48;;;;;;;6.07;3.00;;;18.30;30.20;;;;;;5006577;28;20234;-67
2024/04/08 00:54:15;;;;;;;5.73;2.37;;;18.30;30.20;;;;;;5006902;28;20213;-66
2024/04/08 00:56:41;;;;;;;6.20;2.80;;;18.30;30.00;;;;;;5006456;28;20312;-65
2024/04/08 00:59:08;;;;;;;5.00;2.23;;;18.30;29.90;;;;;;5008940;28;20300;-66
2024/04/08 01:01:34;;;;;;;6.00;2.53;;;18.30;29.80;;;;;;5005868;28;20224;-66
2024/04/08 01:04:00;;;;;;;7.20;2.30;;;18.30;29.90;;;;;;5002525;28;20213;-66
2024/04/08 01:06:26;;;;;;;5.90;2.50;;;18.20;30.00;;;;;;5009807;28;20199;-66
2024/04/08 01:08:52;;;;;;;6.37;2.57;;;18.20;29.90;;;;;;5006845;28;20682;-66
2024/04/08 01:11:18;;;;;;;7.33;2.77;;;18.20;29.80;;;;;;5013449;28;20197;-66
2024/04/08 01:13:45;;;;;;;2.83;2.17;;;18.10;29.80;;;;;;5007161;28;20219;-65
2024/04/08 01:16:11;;;;;;;6.77;2.20;;;18.00;29.90;;;;;;5014618;28;20231;-66
2024/04/08 01:18:37;;;;;;;3.43;1.77;;;18.00;30.00;;;;;;5014442;28;20295;-65
2024/04/08 01:21:03;;;;;;;7.83;2.30;;;18.00;30.00;;;;;;5006209;28;20216;-66
2024/04/08 01:23:30;;;;;;;5.63;2.20;;;18.00;29.90;;;;;;5008874;28;20223;-66
2024/04/08 01:25:55;;;;;;;3.87;2.40;;;18.00;29.80;;;;;;5010420;28;20270;-66
2024/04/08 01:28:22;;;;;;;6.50;2.70;;;17.90;29.90;;;;;;5006734;28;20658;-66
2024/04/08 01:30:49;;;;;;;4.73;2.23;;;18.00;29.90;;;;;;5013971;28;20225;-66
2024/04/08 01:33:16;;;;;;;6.73;2.63;;;17.90;29.70;;;;;;4996789;28;20323;-65
2024/04/08 01:35:42;;;;;;;6.83;3.10;;;17.90;30.00;;;;;;5011637;28;20234;-66
2024/04/08 01:38:08;;;;;;;6.13;2.47;;;17.90;29.80;;;;;;5002933;28;20200;-66
2024/04/08 01:40:34;;;;;;;9.87;2.70;;;18.00;29.50;;;;;;5002998;28;20229;-66
2024/04/08 01:43:01;;;;;;;6.17;2.60;;;18.00;29.60;;;;;;5013200;28;20702;-66
2024/04/08 01:45:27;;;;;;;4.27;2.30;;;17.90;29.40;;;;;;5013559;28;20292;-66
2024/04/08 01:47:53;;;;;;;5.03;2.40;;;17.90;29.30;;;;;;5006466;28;20249;-66
2024/04/08 01:50:19;;;;;;;6.17;2.60;;;18.00;29.30;;;;;;5006812;28;20211;-66
2024/04/08 01:52:45;;;;;;;7.10;2.27;;;18.00;28.90;;;;;;5010634;28;20607;-66
2024/04/08 01:55:12;;;;;;;4.73;2.90;;;18.00;29.00;;;;;;5008853;28;20205;-66
2024/04/08 01:57:38;;;;;;;7.40;2.90;;;17.90;28.90;;;;;;5006390;28;20620;-66
2024/04/08 02:00:07;;;;;;;4.40;2.30;;;18.00;28.80;;;;;;5007251;28;20213;-65
2024/04/08 02:02:33;;;;;;;6.20;2.30;;;17.90;28.60;;;;;;5013392;28;20266;-66
2024/04/08 02:04:59;;;;;;;8.03;2.63;;;18.00;28.60;;;;;;5013575;28;20252;-66
2024/04/08 02:07:25;;;;;;;7.40;2.90;;;18.00;28.60;;;;;;5005095;28;20210;-66
2024/04/08 02:09:51;;;;;;;5.37;2.47;;;18.00;28.60;;;;;;5001590;28;20576;-66
2024/04/08 02:12:17;;;;;;;7.57;2.63;;;17.90;29.10;;;;;;5012741;28;20229;-67
2024/04/08 02:14:44;;;;;;;7.97;2.30;;;17.90;28.60;;;;;;4998646;28;20214;-66
2024/04/08 02:17:09;;;;;;;4.57;2.33;;;17.90;28.60;;;;;;5009136;28;20230;-66
2024/04/08 02:19:36;;;;;;;10.27;2.50;;;17.90;28.50;;;;;;5003947;28;20214;-66
2024/04/08 02:22:02;;;;;;;4.60;2.47;;;17.90;28.70;;;;;;5006819;28;20239;-66
2024/04/08 02:24:28;;;;;;;4.67;2.40;;;17.80;28.30;;;;;;5012922;28;20210;-66
2024/04/08 02:26:54;;;;;;;7.33;2.93;;;17.80;28.40;;;;;;5002391;28;20579;-66
2024/04/08 02:29:21;;;;;;;8.27;2.97;;;17.90;28.40;;;;;;5007460;28;20298;-65
2024/04/08 02:31:46;;;;;;;9.50;2.77;;;17.80;28.30;;;;;;5005464;28;20647;-66
2024/04/08 02:34:13;;;;;;;7.60;2.77;;;17.80;28.30;;;;;;4999310;28;20293;-65
2024/04/08 02:36:39;;;;;;;3.10;2.40;;;17.80;28.30;;;;;;5002816;28;20237;-65
2024/04/08 02:39:06;;;;;;;6.80;3.10;;;17.90;28.40;;;;;;5005436;28;20269;-66
2024/04/08 02:41:32;;;;;;;6.80;3.73;;;17.80;28.30;;;;;;5004802;28;20234;-65
2024/04/08 02:43:58;;;;;;;6.50;2.70;;;17.80;28.30;;;;;;5008934;28;20204;-65
2024/04/08 02:46:24;;;;;;;6.63;2.73;;;17.80;28.30;;;;;;5013103;28;20724;-65
2024/04/08 02:48:50;;;;;;;7.53;2.50;;;17.80;28.30;;;;;;5001834;28;20206;-65
2024/04/08 02:51:16;;;;;;;5.53;2.63;;;17.80;28.30;;;;;;5000121;28;20283;-65
2024/04/08 02:53:43;;;;;;;5.30;2.90;;;17.80;28.30;;;;;;5005497;28;20220;-66
2024/04/08 02:56:09;;;;;;;6.50;2.73;;;17.80;28.30;;;;;;4989405;28;20234;-65
2024/04/08 02:58:35;;;;;;;6.87;2.83;;;17.80;28.30;;;;;;5011243;28;20744;-65
2024/04/08 03:01:01;;;;;;;9.03;2.50;;;17.90;28.10;;;;;;4990667;28;20222;-66
2024/04/08 03:03:28;;;;;;;8.40;2.50;;;17.90;27.90;;;;;;5003971;28;20617;-66
2024/04/08 03:05:53;;;;;;;6.37;2.93;;;17.90;27.60;;;;;;5000942;28;20210;-65
2024/04/08 03:08:20;;;;;;;6.47;2.70;;;18.00;27.40;;;;;;5002658;28;20216;-65
2024/04/08 03:10:46;;;;;;;7.33;2.80;;;18.00;27.30;;;;;;5008123;28;20218;-65
2024/04/08 03:13:12;;;;;;;9.13;2.97;;;18.00;27.20;;;;;;5011799;28;20233;-65
2024/04/08 03:15:38;;;;;;;7.17;2.20;;;18.00;27.00;;;;;;5003940;28;20206;-66
2024/04/08 03:18:06;;;;;;;6.13;2.33;;;18.10;26.70;;;;;;5007279;28;20587;-65
2024/04/08 03:20:32;;;;;;;10.53;2.57;;;18.10;26.90;;;;;;5001919;28;20217;-66
2024/04/08 03:22:58;;;;;;;6.80;2.73;;;18.10;26.80;;;;;;5004342;28;20273;-65
2024/04/08 03:25:24;;;;;;;9.67;3.00;;;18.10;26.70;;;;;;4995210;28;20204;-66
2024/04/08 03:27:51;;;;;;;7.23;2.77;;;18.10;26.50;;;;;;5003356;28;20206;-66
2024/04/08 03:30:16;;;;;;;8.60;3.73;;;18.20;26.50;;;;;;5012022;28;20214;-65
2024/04/08 03:32:43;;;;;;;11.17;3.70;;;18.10;26.40;;;;;;5001613;28;20230;-65
2024/04/08 03:35:08;;;;;;;10.70;3.37;;;18.10;26.10;;;;;;5000991;28;20587;-65
2024/04/08 03:37:35;;;;;;;13.23;2.80;;;18.20;26.10;;;;;;5008614;28;20232;-66
2024/04/08 03:40:02;;;;;;;10.43;2.70;;;18.20;26.00;;;;;;5005727;28;20218;-66
2024/04/08 03:42:28;;;;;;;7.67;2.97;;;18.20;26.00;;;;;;5011939;28;20235;-66
2024/04/08 03:44:55;;;;;;;9.93;2.67;;;18.20;25.90;;;;;;5004031;28;20579;-66
2024/04/08 03:47:20;;;;;;;9.37;2.37;;;18.20;25.90;;;;;;5009928;28;20238;-66
2024/04/08 03:49:47;;;;;;;13.10;3.33;;;18.20;25.80;;;;;;5001153;28;20685;-65
2024/04/08 03:52:13;;;;;;;8.53;2.97;;;18.30;25.70;;;;;;5000404;28;20233;-65
2024/04/08 03:54:40;;;;;;;12.43;3.33;;;18.20;25.70;;;;;;5002663;28;20219;-65
2024/04/08 03:57:05;;;;;;;16.13;3.43;;;18.30;25.50;;;;;;5004012;28;20241;-65
2024/04/08 03:59:32;;;;;;;13.10;3.97;;;18.20;25.70;;;;;;5003072;28;20203;-65
2024/04/08 04:01:57;;;;;;;7.07;2.93;;;18.20;25.80;;;;;;4996948;28;20233;-65
2024/04/08 04:04:25;;;;;;;8.47;2.80;;;18.10;26.50;;;;;;5003576;28;20209;-66
2024/04/08 04:06:51;;;;;;;9.80;3.30;;;17.90;26.90;;;;;;5004040;28;20216;-65
2024/04/08 04:09:17;;;;;;;12.50;3.93;;;17.80;27.30;;;;;;5003734;28;20287;-66
2024/04/08 04:11:43;;;;;;;12.93;3.07;;;17.80;28.60;;;;;;4998473;28;20306;-65
2024/04/08 04:14:09;;;;;;;10.27;3.30;;;17.70;27.90;;;;;;5003393;28;20285;-65
2024/04/08 04:16:35;;;;;;;11.20;3.60;;;17.70;27.40;;;;;;5003692;28;20226;-65
2024/04/08 04:19:02;;;;;;;10.77;3.37;;;17.80;27.40;;;;;;4999041;28;20201;-66
2024/04/08 04:21:27;;;;;;;8.77;3.00;;;17.70;27.80;;;;;;5003866;28;20655;-66
2024/04/08 04:23:54;;;;;;;10.73;3.63;;;17.70;28.60;;;;;;5002040;28;20214;-66
2024/04/08 04:26:20;;;;;;;6.93;2.93;;;17.70;29.10;;;;;;5004509;28;20222;-66
2024/04/08 04:28:46;;;;;;;10.07;3.13;;;17.70;29.10;;;;;;5012345;28;20462;-66
2024/04/08 04:31:12;;;;;;;9.07;3.10;;;17.80;29.20;;;;;;5009422;28;20211;-65
2024/04/08 04:33:38;;;;;;;9.83;3.23;;;17.70;29.70;;;;;;5005930;28;20202;-66
2024/04/08 04:36:04;;;;;;;11.97;3.63;;;17.60;30.30;;;;;;5010116;28;20217;-65
2024/04/08 04:38:31;;;;;;;6.83;3.07;;;17.50;31.20;;;;;;5008071;28;20573;-66
2024/04/08 04:40:56;;;;;;;9.03;3.50;;;17.50;32.10;;;;;;5004430;28;20235;-66
2024/04/08 04:43:23;;;;;;;7.10;3.33;;;17.30;32.90;;;;;;5002120;28;20248;-65
2024/04/08 04:45:49;;;;;;;8.77;3.00;;;17.30;33.30;;;;;;5006704;28;20233;-66
2024/04/08 04:48:15;;;;;;;6.63;2.97;;;17.30;33.60;;;;;;5007179;28;20669;-65
2024/04/08 04:50:41;;;;;;;9.87;3.30;;;17.10;33.90;;;;;;5005259;28;20231;-65
2024/04/08 04:53:08;;;;;;;7.17;3.17;;;17.00;34.90;;;;;;5003705;28;20721;-66
2024/04/08 04:55:33;;;;;;;7.47;3.50;;;16.90;35.60;;;;;;5011786;28;20632;-66
2024/04/08 04:58:00;;;;;;;7.40;3.13;;;16.80;35.20;;;;;;5003646;28;20771;-65
2024/04/08 05:00:26;;;;;;;10.17;3.50;;;16.70;36.40;;;;;;5008309;28;20214;-66
2024/04/08 05:02:53;;;;;;;9.37;3.37;;;16.70;36.50;;;;;;5005168;28;20280;-66
2024/04/08 05:05:18;;;;;;;5.47;2.90;;;16.70;36.50;;;;;;5004043;28;20218;-65
2024/04/08 05:07:45;;;;;;;9.23;3.63;;;16.60;36.70;;;;;;5006521;28;20210;-65
2024/04/08 05:10:10;;;;;;;7.50;3.43;;;16.40;37.30;;;;;;5006584;28;20209;-65
2024/04/08 05:12:37;;;;;;;7.30;4.00;;;16.50;37.60;;;;;;5007775;28;20235;-65
2024/04/08 05:15:03;;;;;;;11.10;3.37;;;16.50;38.00;;;;;;5013758;28;20254;-65
2024/04/08 05:17:29;;;;;;;9.23;2.93;;;16.50;38.00;;;;;;5006610;28;20222;-65
2024/04/08 05:19:55;;;;;;;6.43;2.93;;;16.40;38.10;;;;;;5004810;28;20217;-65
2024/04/08 05:22:24;;;;;;;8.90;3.33;;;16.30;38.70;;;;;;5012068;28;20235;-65
2024/04/08 05:24:49;;;;;;;12.80;3.40;;;16.30;39.50;;;;;;5001169;28;20298;-65
2024/04/08 05:27:16;;;;;;;8.27;3.30;;;16.40;39.20;;;;;;5008459;28;20297;-66
2024/04/08 05:29:41;;;;;;;8.40;3.80;;;16.50;39.50;;;;;;5010569;28;20216;-66
2024/04/08 05:32:08;;;;;;;8.90;4.20;;;16.50;38.80;;;;;;5011050;28;20744;-66
2024/04/08 05:34:34;;;;;;;8.13;4.03;;;16.50;39.10;;;;;;5004420;28;20222;-65
2024/04/08 05:37:00;;;;;;;11.10;4.20;;;16.50;38.90;;;;;;5006099;28;20304;-65
2024/04/08 05:39:26;;;;;;;11.43;3.83;;;16.50;38.70;;;;;;5006499;28;20214;-65
2024/04/08 05:41:52;;;;;;;7.73;3.30;;;16.50;39.20;;;;;;5010294;28;20317;-65
2024/04/08 05:44:18;;;;;;;8.47;4.03;;;16.50;39.40;;;;;;4997246;28;20214;-66
2024/04/08 05:46:45;;;;;;;7.30;3.40;;;16.70;38.50;;;;;;4999753;28;20255;-67
2024/04/08 05:49:10;;;;;;;8.57;3.20;;;16.90;37.60;;;;;;5003113;28;20398;-67
2024/04/08 05:51:37;;;;;;;10.70;3.37;;;17.00;37.10;;;;;;5000392;28;20227;-67
2024/04/08 05:54:02;;;;;;;7.93;3.43;;;17.10;36.80;;;;;;5004179;28;20214;-67
2024/04/08 05:56:29;;;;;;;7.47;3.17;;;17.10;36.80;;;;;;5000694;28;20326;-67
2024/04/08 05:58:55;;;;;;;8.50;3.43;;;17.10;39.50;;;;;;5011257;28;20214;-67
2024/04/08 06:01:21;;;;;;;9.63;3.80;;;17.10;39.40;;;;;;5003148;28;20210;-68
2024/04/08 06:03:47;;;;;;;12.43;3.90;;;17.10;38.90;;;;;;5008490;28;20471;-67
2024/04/08 06:06:14;;;;;;;9.90;3.43;;;17.20;39.00;;;;;;4993135;28;20209;-67
2024/04/08 06:08:39;;;;;;;8.40;3.53;;;17.30;38.60;;;;;;5000860;28;20279;-67
2024/04/08 06:11:06;;;;;;;7.60;3.77;;;17.50;38.20;;;;;;5000110;28;20294;-68
2024/04/08 06:13:31;;;;;;;12.23;3.90;;;17.70;36.40;;;;;;4997937;28;20253;-67
2024/04/08 06:15:58;;;;;;;10.60;3.37;;;17.70;35.70;;;;;;4991961;28;20231;-67
2024/04/08 06:18:24;;;;;;;14.30;4.40;;;17.90;36.50;;;;;;5007023;28;20274;-66
2024/04/08 06:20:51;;;;;;;15.47;4.10;;;17.80;38.00;;;;;;4994168;28;20723;-64
2024/04/08 06:23:16;;;;;;;11.70;4.43;;;17.90;37.50;;;;;;5005817;28;20230;-68
2024/04/08 06:25:43;;;;;;;8.97;4.33;;;17.90;36.70;;;;;;5001090;28;20630;-66
2024/04/08 06:28:10;;;;;;;11.40;4.33;;;18.00;36.90;;;;;;5006976;28;20238;-67
2024/04/08 06:30:35;;;;;;;12.03;4.30;;;18.10;37.60;;;;;;5009204;28;20211;-67
2024/04/08 06:33:02;;;;;;;10.83;4.33;;;18.20;37.50;;;;;;5006260;28;20229;-68
2024/04/08 06:35:28;;;;;;;9.80;3.83;;;18.30;39.00;;;;;;5010180;28;20304;-67
2024/04/08 06:37:54;;;;;;;13.47;3.73;;;18.50;37.50;;;;;;5008643;28;20324;-66
2024/04/08 06:40:20;;;;;;;12.27;4.17;;;18.70;37.20;;;;;;5002194;28;20211;-66
2024/04/08 06:42:46;;;;;;;9.97;3.60;;;18.90;34.80;;;;;;4996497;28;20223;-65
2024/04/08 06:45:12;;;;;;;12.43;3.57;;;19.10;34.00;;;;;;5003917;28;20214;-65
2024/04/08 06:47:38;;;;;;;8.03;3.60;;;19.30;33.90;;;;;;4993038;28;20200;-65
2024/04/08 06:50:04;;;;;;;12.93;4.00;;;19.50;34.10;;;;;;5011517;28;20206;-65
2024/04/08 06:52:31;;;;;;;16.23;4.53;;;19.60;34.20;;;;;;5003381;28;20554;-67
2024/04/08 06:54:56;;;;;;;13.87;4.23;;;19.60;34.50;;;;;;5005502;28;20215;-66
2024/04/08 06:57:25;;;;;;;17.27;4.47;;;19.80;32.40;;;;;;5004692;28;20220;-67
2024/04/08 06:59:50;;;;;;;15.43;5.53;;;19.90;31.10;;;;;;4996198;28;20223;-66
2024/04/08 07:02:17;;;;;;;11.33;4.43;;;20.10;31.10;;;;;;4999848;28;20587;-65
2024/04/08 07:04:43;;;;;;;11.13;3.97;;;20.30;30.00;;;;;;5003787;28;20685;-65
2024/04/08 07:07:09;;;;;;;14.30;3.83;;;20.40;29.00;;;;;;5008596;28;20254;-65
2024/04/08 07:09:35;;;;;;;17.13;4.53;;;20.60;28.80;;;;;;4990497;28;20208;-65
2024/04/08 07:12:02;;;;;;;17.07;5.10;;;20.80;29.30;;;;;;4988165;28;20312;-65
2024/04/08 07:14:28;;;;;;;15.60;4.33;;;20.90;28.70;;;;;;4999275;28;20266;-66
2024/04/08 07:16:55;;;;;;;14.33;4.33;;;21.00;27.50;;;;;;4982285;28;20255;-66
2024/04/08 07:19:21;;;;;;;12.07;4.50;;;20.90;27.50;;;;;;4992702;28;21446;-65
2024/04/08 07:21:48;;;;;;;12.17;4.03;;;20.90;27.50;;;;;;5011778;28;20254;-66
2024/04/08 07:24:14;;;;;;;12.93;4.20;;;20.80;27.90;;;;;;4999260;28;20215;-65
2024/04/08 07:26:40;;;;;;;16.37;5.33;;;20.70;28.00;;;;;;5000100;28;20206;-65
2024/04/08 07:29:06;;;;;;;17.80;5.90;;;20.80;27.70;;;;;;5003246;28;20214;-66
2024/04/08 07:31:32;;;;;;;15.23;4.63;;;20.70;27.70;;;;;;5003598;28;20238;-66
2024/04/08 07:33:58;;;;;;;18.13;4.87;;;20.70;27.80;;;;;;5006229;28;20216;-65
2024/04/08 07:38:03;;;;;;;14.33;4.43;;;20.70;27.50;;;;;;5539972;25;21243;-66
2024/04/08 07:40:28;;;;;;;13.70;5.17;;;20.80;27.40;;;;;;5519856;25;20238;-66
2024/04/08 07:42:56;;;;;;;19.73;5.47;;;20.80;26.80;;;;;;5494531;25;20943;-65
2024/04/08 07:45:22;;;;;;;12.33;4.63;;;20.90;26.60;;;;;;5488791;25;20400;-67
2024/04/08 07:47:50;;;;;;;15.13;4.30;;;20.90;27.60;;;;;;5498470;25;20736;-65
2024/04/08 07:50:16;;;;;;;15.13;4.40;;;21.00;27.50;;;;;;5495092;26;20275;-66
2024/04/08 07:52:45;;;;;;;13.87;4.87;;;21.00;28.00;;;;;;5498906;25;20252;-66
2024/04/08 07:55:10;;;;;;;21.93;4.83;;;21.10;26.70;;;;;;5489698;26;20236;-66
2024/04/08 07:57:39;;;;;;;14.83;4.57;;;21.20;26.80;;;;;;5491314;26;20677;-66
2024/04/08 08:00:07;;;;;;;13.63;4.80;;;21.20;26.50;;;;;;5483937;26;22312;-66
2024/04/08 08:02:36;;;;;;;14.93;4.23;;;21.20;26.90;;;;;;5506183;25;20638;-66
2024/04/08 08:05:01;;;;;;;12.83;4.43;;;21.20;26.60;;;;;;5503729;25;20236;-66
2024/04/08 08:07:30;;;;;;;13.80;4.43;;;21.40;26.40;;;;;;5505894;26;20228;-66
2024/04/08 08:09:58;;;;;;;14.60;4.67;;;21.30;26.70;;;;;;5503506;25;20330;-66
2024/04/08 08:12:26;;;;;;;9.67;3.53;;;21.40;26.60;;;;;;5498785;25;20294;-66
2024/04/08 08:14:55;;;;;;;17.90;5.37;;;21.40;26.40;;;;;;5472050;26;20291;-66
2024/04/08 08:17:23;;;;;;;13.90;4.47;;;21.40;26.90;;;;;;5473863;26;20236;-66
2024/04/08 08:19:51;;;;;;;12.33;3.60;;;21.40;26.60;;;;;;5491207;25;20597;-66
2024/04/08 08:22:19;;;;;;;13.40;3.92;;;21.40;25.80;;;;;;5490445;25;20281;-66
2024/04/08 08:24:47;;;;;;;14.75;4.00;;;21.40;26.20;;;;;;5487708;26;20320;-66
2024/04/08 08:27:15;;;;;;;12.77;4.07;;;21.60;25.00;;;;;;5481641;26;20912;-66
2024/04/08 08:29:43;;;;;;;10.60;3.53;;;22.00;24.10;;;;;;5497830;26;20289;-65
2024/04/08 08:32:12;;;;;;;16.73;4.47;;;22.40;24.60;;;;;;5494083;25;20260;-66
2024/04/08 08:34:40;;;;;;;13.95;4.03;;;23.00;24.50;;;;;;5483745;26;20236;-66
2024/04/08 08:37:05;;;;;;;11.70;4.05;;;23.60;24.50;;;;;;5492956;25;20244;-66
2024/04/08 08:39:37;;;;;;;13.57;3.83;;;24.00;23.60;;;;;;5503711;26;20339;-66
2024/04/08 08:42:02;;;;;;;13.55;3.75;;;24.00;23.60;;;;;;5502791;25;21587;-66
2024/04/08 08:44:31;;;;;;;11.23;3.50;;;23.80;23.30;;;;;;5504356;26;20874;-66
2024/04/08 08:46:56;;;;;;;10.32;3.10;;;23.50;22.70;;;;;;5500816;26;20701;-66
2024/04/08 08:49:25;;;;;;;12.45;3.22;;;23.30;23.10;;;;;;5462516;26;20315;-67
2024/04/08 08:51:53;;;;;;;12.63;2.92;;;23.40;22.90;;;;;;5458128;26;20248;-66
2024/04/08 08:54:18;;;;;;;12.32;4.13;;;23.60;23.10;;;;;;5479399;26;20354;-66
2024/04/08 08:56:47;;;;;;;16.25;4.13;;;24.00;22.80;;;;;;5471489;26;20237;-65
2024/04/08 08:59:12;;;;;;;12.73;4.20;;;24.40;23.10;;;;;;5471131;26;20242;-66
2024/04/08 09:01:40;;;;;;;14.43;3.72;;;24.70;22.10;;;;;;5480008;26;20245;-66
2024/04/08 09:04:06;;;;;;;16.05;3.80;;;25.00;22.40;;;;;;5484712;26;20252;-66
2024/04/08 09:06:34;;;;;;;12.48;3.58;;;25.10;21.50;;;;;;5462910;26;20351;-66
2024/04/08 09:09:00;;;;;;;17.73;3.90;;;25.30;21.60;;;;;;5478180;26;20318;-66
2024/04/08 09:11:28;;;;;;;14.38;3.33;;;25.30;21.70;;;;;;5487520;26;20258;-66
2024/04/08 09:13:53;;;;;;;12.23;3.17;;;25.40;21.60;;;;;;5488087;26;20606;-66
2024/04/08 09:16:22;;;;;;;13.00;4.03;;;25.30;21.70;;;;;;5486185;26;20333;-66
2024/04/08 09:18:47;;;;;;;10.82;3.50;;;25.40;21.40;;;;;;5482401;26;20320;-66
2024/04/08 09:21:15;;;;;;;10.35;3.78;;;25.70;20.80;;;;;;5484384;26;20241;-66
2024/04/08 09:23:42;;;;;;;14.55;3.97;;;25.90;20.10;;;;;;5451233;26;20723;-67
2024/04/08 09:26:10;;;;;;;14.52;3.38;;;26.00;19.90;;;;;;5428038;26;20246;-66
2024/04/08 09:28:36;;;;;;;9.63;3.38;;;26.10;21.20;;;;;;5467833;26;20363;-66
2024/04/08 09:31:05;;;;;;;13.23;3.30;;;26.10;20.50;;;;;;5477796;26;20241;-66
2024/04/08 09:33:31;;;;;;;13.98;3.92;;;26.70;19.40;;;;;;5470236;26;20289;-67
2024/04/08 09:35:59;;;;;;;10.75;3.50;;;27.40;19.80;;;;;;5480991;26;20692;-66
2024/04/08 09:38:25;;;;;;;10.13;3.30;;;27.50;20.40;;;;;;5483228;26;20745;-66
2024/04/08 09:40:53;;;;;;;11.02;3.35;;;27.50;20.50;;;;;;5463727;26;20348;-66
2024/04/08 09:43:18;;;;;;;6.20;2.28;;;27.40;25.00;;;;;;5468601;26;20262;-67
2024/04/08 09:45:47;;;;;;;5.93;2.67;;;27.00;29.10;;;;;;5463303;26;20329;-65
2024/04/08 09:48:12;;;;;;;4.97;2.70;;;26.80;28.90;;;;;;5460804;26;20236;-65
2024/04/08 09:50:41;;;;;;;7.85;2.45;;;26.80;29.60;;;;;;5470425;26;20840;-65
2024/04/08 09:53:06;;;;;;;14.35;3.53;;;26.90;29.00;;;;;;5427211;26;20271;-64
2024/04/08 09:55:35;;;;;;;7.18;2.60;;;27.00;24.60;;;;;;5435406;26;20245;-66
2024/04/08 09:58:00;;;;;;;11.93;2.80;;;27.10;29.40;;;;;;5430546;26;20238;-66
2024/04/08 10:00:28;;;;;;;12.10;2.85;;;27.20;27.30;;;;;;5427227;26;20317;-66
2024/04/08 10:02:55;;;;;;;15.35;4.18;;;26.80;27.90;;;;;;5473405;26;20256;-63
2024/04/08 10:05:23;;;;;;;14.93;3.40;;;26.30;22.60;;;;;;5415772;26;20758;-66
2024/04/08 10:07:49;;;;;;;10.93;3.03;;;26.00;28.30;;;;;;5478886;26;20347;-69
2024/04/08 10:10:18;;;;;;;8.80;3.13;;;25.80;28.10;;;;;;5477938;26;20245;-64
2024/04/08 10:12:43;;;;;;;9.40;3.05;;;25.60;29.70;;;;;;5454113;26;20359;-63
2024/04/08 10:15:12;;;;;;;10.40;4.20;;;25.50;29.70;;;;;;5469319;26;20233;-64
2024/04/08 10:17:37;;;;;;;9.52;3.65;;;25.40;28.90;;;;;;5472430;26;20240;-68
2024/04/08 10:20:05;;;;;;;11.80;3.70;;;25.40;27.90;;;;;;5476849;26;20736;-63
2024/04/08 10:22:31;;;;;;;8.15;4.03;;;25.40;28.70;;;;;;5494906;26;20538;-63
2024/04/08 10:25:00;;;;;;;15.65;4.13;;;25.40;29.60;;;;;;5476691;26;20241;-65
2024/04/08 10:27:26;;;;;;;12.93;3.40;;;25.40;29.10;;;;;;5469305;26;20238;-68
2024/04/08 10:29:54;;;;;;;17.40;4.72;;;25.30;27.90;;;;;;5473010;26;20249;-65
2024/04/08 10:32:19;;;;;;;11.20;3.83;;;25.30;31.30;;;;;;5485221;26;20318;-71
2024/04/08 10:34:48;;;;;;;15.60;4.95;;;25.60;43.70;;;;;;5477278;26;20252;-72
2024/04/08 10:37:13;;;;;;;15.57;4.35;;;25.10;29.30;;;;;;5474171;26;20264;-67
2024/04/08 10:39:43;;;;;;;15.57;3.55;;;25.10;29.60;;;;;;5465900;26;20329;-67
2024/04/08 10:42:08;;;;;;;13.65;3.63;;;25.00;28.50;;;;;;5484242;26;20241;-67
2024/04/08 10:44:36;;;;;;;12.13;3.67;;;24.70;28.70;;;;;;5484885;26;20336;-66
2024/04/08 10:47:02;;;;;;;17.13;4.28;;;24.90;29.60;;;;;;5479521;26;20716;-66
2024/04/08 10:49:30;;;;;;;12.10;3.85;;;24.80;28.70;;;;;;5473485;26;20235;-66
2024/04/08 10:51:56;;;;;;;12.15;3.42;;;24.80;29.30;;;;;;5463054;26;20379;-67
2024/04/08 10:54:24;;;;;;;16.17;4.15;;;24.80;29.30;;;;;;5474382;26;20248;-68
2024/04/08 10:56:50;;;;;;;13.02;3.63;;;24.70;29.20;;;;;;5465403;26;23025;-67
2024/04/08 10:59:18;;;;;;;12.85;4.45;;;24.60;29.40;;;;;;5467907;26;20627;-67
2024/04/08 11:01:43;;;;;;;14.40;4.15;;;24.90;29.30;;;;;;5480966;26;20303;-67
2024/04/08 11:07:05;;;;;;;15.98;3.75;;;24.70;29.20;;;;;;5716308;21;20263;-68
2024/04/08 11:09:31;;;;;;;18.70;4.47;;;24.60;29.90;;;;;;5380433;26;20281;-67
2024/04/08 11:11:59;;;;;;;8.55;3.63;;;24.70;29.70;;;;;;5384304;26;20246;-67
2024/04/08 11:14:25;;;;;;;13.18;3.88;;;25.00;28.50;;;;;;5366923;26;20276;-67
2024/04/08 11:16:58;;;;;;;12.02;3.45;;;25.30;27.00;;;;;;5294820;26;20701;-67
2024/04/08 11:19:24;;;;;;;10.02;3.70;;;24.90;28.20;;;;;;5278622;26;20814;-70
2024/04/08 11:21:52;;;;;;;13.82;4.07;;;24.70;28.50;;;;;;5277565;26;20254;-66
2024/04/08 11:24:18;;;;;;;11.57;4.47;;;24.80;28.20;;;;;;5291739;26;20266;-67
2024/04/08 11:26:46;;;;;;;14.73;4.43;;;24.90;28.00;;;;;;5296047;27;20331;-67
2024/04/08 11:29:12;;;;;;;13.07;3.92;;;24.80;28.70;;;;;;5302938;26;20250;-67
2024/04/08 11:31:40;;;;;;;11.85;4.85;;;24.90;29.30;;;;;;5303746;26;20740;-68
2024/04/08 11:34:06;;;;;;;13.90;4.68;;;24.70;29.50;;;;;;5301102;27;20342;-68
2024/04/08 11:36:35;;;;;;;18.02;4.68;;;24.70;30.20;;;;;;5304708;26;20757;-67
2024/04/08 11:39:00;;;;;;;12.13;4.10;;;24.90;28.90;;;;;;5307831;26;20244;-69
2024/04/08 11:41:29;;;;;;;19.77;5.25;;;24.90;29.50;;;;;;5288069;26;20622;-67
2024/04/08 11:43:54;;;;;;;17.60;4.90;;;25.30;29.50;;;;;;5303418;26;20259;-68
2024/04/08 11:46:24;;;;;;;12.55;5.13;;;24.90;29.30;;;;;;5306367;26;20615;-68
2024/04/08 11:48:49;;;;;;;16.27;4.38;;;24.70;29.60;;;;;;5305053;26;20275;-66
2024/04/08 11:51:18;;;;;;;15.98;5.18;;;24.70;29.70;;;;;;5307247;26;20586;-68
2024/04/08 11:53:43;;;;;;;11.13;4.05;;;24.70;29.90;;;;;;5310254;26;20238;-68
2024/04/08 11:56:12;;;;;;;14.50;5.07;;;24.70;31.20;;;;;;5296865;26;20243;-68
2024/04/08 11:58:38;;;;;;;15.88;4.93;;;24.70;30.90;;;;;;5308921;26;20741;-69
2024/04/08 12:01:06;;;;;;;20.00;4.22;;;24.90;30.00;;;;;;5307256;26;20241;-68
2024/04/08 12:03:32;;;;;;;14.18;4.22;;;24.80;30.10;;;;;;5305442;26;20717;-69
2024/04/08 12:06:00;;;;;;;18.65;5.50;;;24.70;30.20;;;;;;5302328;26;20280;-66
2024/04/08 12:08:26;;;;;;;16.27;5.00;;;24.70;29.20;;;;;;5310229;26;20249;-66
2024/04/08 12:10:55;;;;;;;13.63;4.57;;;24.90;29.50;;;;;;5635498;21;20302;-72
2024/04/08 12:13:22;;;;;;;19.23;4.60;;;27.80;25.10;;;;;;5324869;26;20350;-68
2024/04/08 12:18:28;;;;;;;22.13;5.45;;;32.60;17.40;;;;;;5350183;21;20841;-68
2024/04/08 12:20:53;;;;;;;21.70;5.63;;;33.30;15.90;;;;;;5324118;26;20354;-68
2024/04/08 12:23:21;;;;;;;24.85;5.90;;;33.50;15.90;;;;;;5697385;21;20278;-67
2024/04/08 12:25:47;;;;;;;24.55;5.57;;;32.60;17.40;;;;;;5257067;27;20646;-67
2024/04/08 12:28:15;;;;;;;28.10;5.32;;;31.30;18.20;;;;;;5256817;26;20246;-67
2024/04/08 12:30:41;;;;;;;28.23;5.82;;;30.50;18.40;;;;;;5272373;27;20303;-67
2024/04/08 12:33:10;;;;;;;20.45;5.45;;;30.00;17.70;;;;;;5302240;27;20250;-67
2024/04/08 12:35:35;;;;;;;20.42;4.68;;;29.60;19.10;;;;;;5300714;27;20241;-68
2024/04/08 12:38:08;;;;;;;30.25;6.18;;;29.50;19.80;;;;;;5299836;27;20852;-68
2024/04/08 12:40:34;;;;;;;20.48;6.38;;;29.30;19.50;;;;;;5290818;27;20297;-68
2024/04/08 12:43:02;;;;;;;23.15;5.90;;;29.10;20.00;;;;;;5299494;26;20250;-68